sensor_id;sensor_type;location;lat;lon;timestamp;temperature;humidity
17944;DHT22;9097;47.028;15.444;2023-07-31T13:25:52;24.00;99.90
17944;DHT22;9097;47.028;15.444;2023-07-31T13:28:56;24.20;99.90
17944;DHT22;9097;47.028;15.444;2023-07-31T13:31:58;24.20;99.90
17944;DHT22;9097;47.028;15.444;2023-07-31T13:35:00;24.20;99.90
17944;DHT22;9097;47.028;15.444;2023-07-31T13:38:02;24.10;99.90
17944;DHT22;9097;47.028;15.444;2023-07-31T13:41:06;24.10;99.90
17944;DHT22;9097;47.028;15.444;2023-07-31T13:44:10;24.00;99.90
17944;DHT22;9097;47.028;15.444;2023-07-31T13:47:12;24.00;99.90
17944;DHT22;9097;47.028;15.444;2023-07-31T13:50:14;23.90;99.90
17944;DHT22;9097;47.028;15.444;2023-07-31T13:53:17;23.90;99.90
17944;DHT22;9097;47.028;15.444;2023-07-31T13:56:20;23.90;99.90
17944;DHT22;9097;47.028;15.444;2023-07-31T13:59:23;24.00;99.90
17944;DHT22;9097;47.028;15.444;2023-07-31T14:02:26;24.00;99.90
17944;DHT22;9097;47.028;15.444;2023-07-31T14:05:28;24.00;99.90
17944;DHT22;9097;47.028;15.444;2023-07-31T14:08:31;24.00;99.90
17944;DHT22;9097;47.028;15.444;2023-07-31T14:11:33;24.00;99.90
17944;DHT22;9097;47.028;15.444;2023-07-31T14:14:37;24.00;99.90
17944;DHT22;9097;47.028;15.444;2023-07-31T14:17:40;24.00;99.90
17944;DHT22;9097;47.028;15.444;2023-07-31T14:20:42;24.10;99.90
17944;DHT22;9097;47.028;15.444;2023-07-31T14:23:44;24.10;99.90
17944;DHT22;9097;47.028;15.444;2023-07-31T14:26:46;24.20;99.90
17944;DHT22;9097;47.028;15.444;2023-07-31T14:29:50;24.20;99.90
17944;DHT22;9097;47.028;15.444;2023-07-31T14:32:52;24.20;99.90
17944;DHT22;9097;47.028;15.444;2023-07-31T14:35:56;24.20;99.90
17944;DHT22;9097;47.028;15.444;2023-07-31T14:38:58;24.30;99.90
17944;DHT22;9097;47.028;15.444;2023-07-31T14:42:01;24.20;99.90
17944;DHT22;9097;47.028;15.444;2023-07-31T14:45:06;24.20;99.90
17944;DHT22;9097;47.028;15.444;2023-07-31T14:48:09;24.10;99.90
17944;DHT22;9097;47.028;15.444;2023-07-31T14:51:12;24.10;99.90
17944;DHT22;9097;47.028;15.444;2023-07-31T14:54:15;24.00;99.90
17944;DHT22;9097;47.028;15.444;2023-07-31T14:57:17;24.00;99.90
17944;DHT22;9097;47.028;15.444;2023-07-31T15:00:21;24.00;99.90
17944;DHT22;9097;47.028;15.444;2023-07-31T15:03:25;24.00;99.90
17944;DHT22;9097;47.028;15.444;2023-07-31T15:06:27;23.90;99.90
17944;DHT22;9097;47.028;15.444;2023-07-31T15:09:30;23.90;99.90
17944;DHT22;9097;47.028;15.444;2023-07-31T15:12:32;23.90;99.90
17944;DHT22;9097;47.028;15.444;2023-07-31T15:15:36;24.00;99.90
17944;DHT22;9097;47.028;15.444;2023-07-31T15:18:38;23.90;99.90
17944;DHT22;9097;47.028;15.444;2023-07-31T15:21:41;23.90;99.90
17944;DHT22;9097;47.028;15.444;2023-07-31T15:24:43;23.80;99.90
17944;DHT22;9097;47.028;15.444;2023-07-31T15:27:45;23.90;99.90
17944;DHT22;9097;47.028;15.444;2023-07-31T15:30:49;23.90;99.90
17944;DHT22;9097;47.028;15.444;2023-07-31T15:33:52;23.90;99.90
17944;DHT22;9097;47.028;15.444;2023-07-31T15:36:54;23.90;99.90
17944;DHT22;9097;47.028;15.444;2023-07-31T15:39:57;23.90;99.90
17944;DHT22;9097;47.028;15.444;2023-07-31T15:42:59;23.80;99.90
17944;DHT22;9097;47.028;15.444;2023-07-31T15:46:04;23.80;99.90
17944;DHT22;9097;47.028;15.444;2023-07-31T15:49:07;23.80;99.90
17944;DHT22;9097;47.028;15.444;2023-07-31T15:52:09;23.80;99.90
17944;DHT22;9097;47.028;15.444;2023-07-31T15:55:11;23.80;99.90
17944;DHT22;9097;47.028;15.444;2023-07-31T15:58:14;23.80;99.90
17944;DHT22;9097;47.028;15.444;2023-07-31T16:01:17;23.90;99.90
17944;DHT22;9097;47.028;15.444;2023-07-31T16:04:20;23.90;99.90
17944;DHT22;9097;47.028;15.444;2023-07-31T16:07:22;23.90;99.90
17944;DHT22;9097;47.028;15.444;2023-07-31T16:10:24;23.90;99.90
17944;DHT22;9097;47.028;15.444;2023-07-31T16:13:26;23.90;99.90
17944;DHT22;9097;47.028;15.444;2023-07-31T16:16:30;23.80;99.90
17944;DHT22;9097;47.028;15.444;2023-07-31T16:19:32;23.80;99.90
17944;DHT22;9097;47.028;15.444;2023-07-31T16:22:35;23.80;99.90
17944;DHT22;9097;47.028;15.444;2023-07-31T16:25:37;23.70;99.90
17944;DHT22;9097;47.028;15.444;2023-07-31T16:28:39;23.70;99.90
17944;DHT22;9097;47.028;15.444;2023-07-31T16:31:43;23.70;99.90
17944;DHT22;9097;47.028;15.444;2023-07-31T16:34:45;23.70;99.90
17944;DHT22;9097;47.028;15.444;2023-07-31T16:37:48;23.70;99.90
17944;DHT22;9097;47.028;15.444;2023-07-31T16:40:50;23.70;99.90
17944;DHT22;9097;47.028;15.444;2023-07-31T16:43:52;23.70;99.90
17944;DHT22;9097;47.028;15.444;2023-07-31T16:46:56;23.70;99.90
17944;DHT22;9097;47.028;15.444;2023-07-31T16:49:58;23.70;99.90
17944;DHT22;9097;47.028;15.444;2023-07-31T16:53:01;23.70;99.90
17944;DHT22;9097;47.028;15.444;2023-07-31T16:56:04;23.60;99.90
17944;DHT22;9097;47.028;15.444;2023-07-31T16:59:07;23.60;99.90
17944;DHT22;9097;47.028;15.444;2023-07-31T17:02:11;23.60;99.90
17944;DHT22;9097;47.028;15.444;2023-07-31T17:05:13;23.60;99.90
17944;DHT22;9097;47.028;15.444;2023-07-31T17:08:15;23.60;99.90
17944;DHT22;9097;47.028;15.444;2023-07-31T17:11:18;23.60;99.90
17944;DHT22;9097;47.028;15.444;2023-07-31T17:14:20;23.60;99.90
17944;DHT22;9097;47.028;15.444;2023-07-31T17:17:24;23.60;99.90
17944;DHT22;9097;47.028;15.444;2023-07-31T17:20:26;23.60;99.90
17944;DHT22;9097;47.028;15.444;2023-07-31T17:23:29;23.60;99.90
17944;DHT22;9097;47.028;15.444;2023-07-31T17:26:32;23.60;99.90
17944;DHT22;9097;47.028;15.444;2023-07-31T17:29:34;23.60;99.90
17944;DHT22;9097;47.028;15.444;2023-07-31T17:32:38;23.60;99.90
17944;DHT22;9097;47.028;15.444;2023-07-31T17:35:40;23.60;99.90
17944;DHT22;9097;47.028;15.444;2023-07-31T17:38:42;23.60;99.90
17944;DHT22;9097;47.028;15.444;2023-07-31T17:41:45;23.60;99.90
17944;DHT22;9097;47.028;15.444;2023-07-31T17:44:48;23.50;99.90
17944;DHT22;9097;47.028;15.444;2023-07-31T17:47:53;23.50;99.90
17944;DHT22;9097;47.028;15.444;2023-07-31T17:50:55;23.50;99.90
17944;DHT22;9097;47.028;15.444;2023-07-31T17:53:57;23.40;99.90
17944;DHT22;9097;47.028;15.444;2023-07-31T17:57:00;23.40;99.90
17944;DHT22;9097;47.028;15.444;2023-07-31T18:00:03;23.30;99.90
